sensor_id;sensor_type;location;lat;lon;timestamp;temperature;humidity
42841;DHT22;28491;46.898;7.660;2022-11-09T00:01:20;6.10;63.90
42841;DHT22;28491;46.898;7.660;2022-11-09T00:03:47;6.20;63.80
42841;DHT22;28491;46.898;7.660;2022-11-09T00:06:13;6.20;64.00
42841;DHT22;28491;46.898;7.660;2022-11-09T00:08:39;6.20;63.30
42841;DHT22;28491;46.898;7.660;2022-11-09T00:11:09;6.20;63.20
42841;DHT22;28491;46.898;7.660;2022-11-09T00:13:35;6.40;62.90
42841;DHT22;28491;46.898;7.660;2022-11-09T00:16:01;6.40;62.40
42841;DHT22;28491;46.898;7.660;2022-11-09T00:18:27;6.40;62.00
42841;DHT22;28491;46.898;7.660;2022-11-09T00:20:53;6.30;62.40
42841;DHT22;28491;46.898;7.660;2022-11-09T00:23:18;6.30;62.70
42841;DHT22;28491;46.898;7.660;2022-11-09T00:25:44;6.40;62.20
42841;DHT22;28491;46.898;7.660;2022-11-09T00:28:09;6.40;61.50
42841;DHT22;28491;46.898;7.660;2022-11-09T00:30:35;6.40;61.50
42841;DHT22;28491;46.898;7.660;2022-11-09T00:33:00;6.30;61.70
42841;DHT22;28491;46.898;7.660;2022-11-09T00:35:26;6.30;62.30
42841;DHT22;28491;46.898;7.660;2022-11-09T00:37:52;6.40;62.30
42841;DHT22;28491;46.898;7.660;2022-11-09T00:40:18;6.50;61.70
42841;DHT22;28491;46.898;7.660;2022-11-09T00:42:44;6.50;61.60
42841;DHT22;28491;46.898;7.660;2022-11-09T00:45:10;6.50;62.60
42841;DHT22;28491;46.898;7.660;2022-11-09T00:47:35;6.60;62.70
42841;DHT22;28491;46.898;7.660;2022-11-09T00:50:01;6.70;62.30
42841;DHT22;28491;46.898;7.660;2022-11-09T00:52:26;6.80;62.00
42841;DHT22;28491;46.898;7.660;2022-11-09T00:54:52;6.70;62.10
42841;DHT22;28491;46.898;7.660;2022-11-09T00:57:18;6.70;62.10
42841;DHT22;28491;46.898;7.660;2022-11-09T00:59:43;6.80;62.40
42841;DHT22;28491;46.898;7.660;2022-11-09T01:02:09;6.80;61.30
42841;DHT22;28491;46.898;7.660;2022-11-09T01:04:34;6.80;61.60
42841;DHT22;28491;46.898;7.660;2022-11-09T01:07:00;6.80;61.70
42841;DHT22;28491;46.898;7.660;2022-11-09T01:09:25;6.90;61.50
42841;DHT22;28491;46.898;7.660;2022-11-09T01:11:51;6.90;62.10
42841;DHT22;28491;46.898;7.660;2022-11-09T01:14:17;6.80;63.10
42841;DHT22;28491;46.898;7.660;2022-11-09T01:16:42;6.80;63.80
42841;DHT22;28491;46.898;7.660;2022-11-09T01:19:08;6.70;63.60
42841;DHT22;28491;46.898;7.660;2022-11-09T01:21:33;6.80;64.30
42841;DHT22;28491;46.898;7.660;2022-11-09T01:23:59;6.90;62.50
42841;DHT22;28491;46.898;7.660;2022-11-09T01:26:26;6.80;64.10
42841;DHT22;28491;46.898;7.660;2022-11-09T01:28:51;7.00;62.30
42841;DHT22;28491;46.898;7.660;2022-11-09T01:31:18;7.00;62.60
42841;DHT22;28491;46.898;7.660;2022-11-09T01:33:45;6.90;62.00
42841;DHT22;28491;46.898;7.660;2022-11-09T01:36:12;6.80;62.30
42841;DHT22;28491;46.898;7.660;2022-11-09T01:38:39;6.90;62.10
42841;DHT22;28491;46.898;7.660;2022-11-09T01:41:06;7.00;61.10
42841;DHT22;28491;46.898;7.660;2022-11-09T01:43:31;7.00;61.40
42841;DHT22;28491;46.898;7.660;2022-11-09T01:46:01;7.00;60.80
42841;DHT22;28491;46.898;7.660;2022-11-09T01:51:30;7.00;62.00
42841;DHT22;28491;46.898;7.660;2022-11-09T01:54:05;7.00;62.10
42841;DHT22;28491;46.898;7.660;2022-11-09T01:56:32;7.00;61.60
42841;DHT22;28491;46.898;7.660;2022-11-09T01:59:02;7.10;61.80
42841;DHT22;28491;46.898;7.660;2022-11-09T02:01:28;7.10;60.80
42841;DHT22;28491;46.898;7.660;2022-11-09T02:04:00;7.20;60.20
42841;DHT22;28491;46.898;7.660;2022-11-09T02:06:27;7.20;61.40
42841;DHT22;28491;46.898;7.660;2022-11-09T02:09:01;7.20;61.90
42841;DHT22;28491;46.898;7.660;2022-11-09T02:11:28;7.10;61.50
42841;DHT22;28491;46.898;7.660;2022-11-09T02:13:56;7.20;61.10
42841;DHT22;28491;46.898;7.660;2022-11-09T02:16:23;7.20;60.90
42841;DHT22;28491;46.898;7.660;2022-11-09T02:18:53;7.20;61.00
42841;DHT22;28491;46.898;7.660;2022-11-09T02:21:21;7.10;61.00
42841;DHT22;28491;46.898;7.660;2022-11-09T02:23:48;7.10;60.90
42841;DHT22;28491;46.898;7.660;2022-11-09T02:26:18;7.00;60.90
42841;DHT22;28491;46.898;7.660;2022-11-09T02:28:46;7.10;60.20
42841;DHT22;28491;46.898;7.660;2022-11-09T02:31:14;7.20;59.00
42841;DHT22;28491;46.898;7.660;2022-11-09T02:34:01;7.20;54.90
42841;DHT22;28491;46.898;7.660;2022-11-09T02:36:27;7.20;57.40
42841;DHT22;28491;46.898;7.660;2022-11-09T02:38:53;7.10;58.20
42841;DHT22;28491;46.898;7.660;2022-11-09T02:41:20;7.10;58.40
42841;DHT22;28491;46.898;7.660;2022-11-09T02:43:46;7.20;60.00
42841;DHT22;28491;46.898;7.660;2022-11-09T02:46:12;7.30;60.20
42841;DHT22;28491;46.898;7.660;2022-11-09T02:48:38;7.30;60.20
42841;DHT22;28491;46.898;7.660;2022-11-09T02:51:03;7.30;60.50
42841;DHT22;28491;46.898;7.660;2022-11-09T02:53:29;7.40;60.60
42841;DHT22;28491;46.898;7.660;2022-11-09T02:55:54;7.30;61.00
42841;DHT22;28491;46.898;7.660;2022-11-09T02:58:20;7.30;61.10
42841;DHT22;28491;46.898;7.660;2022-11-09T03:00:45;7.30;60.40
42841;DHT22;28491;46.898;7.660;2022-11-09T03:03:11;7.40;60.40
42841;DHT22;28491;46.898;7.660;2022-11-09T03:05:36;7.50;59.60
42841;DHT22;28491;46.898;7.660;2022-11-09T03:08:02;7.40;60.00
42841;DHT22;28491;46.898;7.660;2022-11-09T03:10:28;7.40;59.90
42841;DHT22;28491;46.898;7.660;2022-11-09T03:12:53;7.40;60.00
42841;DHT22;28491;46.898;7.660;2022-11-09T03:15:19;7.50;60.30
42841;DHT22;28491;46.898;7.660;2022-11-09T03:17:44;7.40;60.90
42841;DHT22;28491;46.898;7.660;2022-11-09T03:20:10;7.40;60.80
42841;DHT22;28491;46.898;7.660;2022-11-09T03:22:36;7.40;60.20
42841;DHT22;28491;46.898;7.660;2022-11-09T03:25:01;7.30;60.90
42841;DHT22;28491;46.898;7.660;2022-11-09T03:27:27;7.40;61.00
42841;DHT22;28491;46.898;7.660;2022-11-09T03:29:52;7.50;60.20
42841;DHT22;28491;46.898;7.660;2022-11-09T03:32:18;7.40;60.90
42841;DHT22;28491;46.898;7.660;2022-11-09T03:34:43;7.40;62.10
42841;DHT22;28491;46.898;7.660;2022-11-09T03:37:09;7.40;63.80
42841;DHT22;28491;46.898;7.660;2022-11-09T03:39:34;7.20;65.60
42841;DHT22;28491;46.898;7.660;2022-11-09T03:42:00;7.20;65.90
42841;DHT22;28491;46.898;7.660;2022-11-09T03:44:25;7.30;66.90
42841;DHT22;28491;46.898;7.660;2022-11-09T03:46:51;7.30;66.40
42841;DHT22;28491;46.898;7.660;2022-11-09T03:49:16;7.40;65.00
42841;DHT22;28491;46.898;7.660;2022-11-09T03:51:42;7.50;65.40
42841;DHT22;28491;46.898;7.660;2022-11-09T03:54:08;7.50;62.80
42841;DHT22;28491;46.898;7.660;2022-11-09T03:56:33;7.50;62.20
42841;DHT22;28491;46.898;7.660;2022-11-09T03:58:59;7.50;64.20
42841;DHT22;28491;46.898;7.660;2022-11-09T04:01:24;7.50;66.50
42841;DHT22;28491;46.898;7.660;2022-11-09T04:03:50;7.40;66.60
42841;DHT22;28491;46.898;7.660;2022-11-09T04:06:15;7.40;66.80
42841;DHT22;28491;46.898;7.660;2022-11-09T04:08:41;7.30;68.60
42841;DHT22;28491;46.898;7.660;2022-11-09T04:11:06;7.30;69.30
42841;DHT22;28491;46.898;7.660;2022-11-09T04:13:32;7.30;68.80
42841;DHT22;28491;46.898;7.660;2022-11-09T04:15:57;7.30;69.90
42841;DHT22;28491;46.898;7.660;2022-11-09T04:18:23;7.40;70.50
42841;DHT22;28491;46.898;7.660;2022-11-09T04:20:49;7.40;69.30
42841;DHT22;28491;46.898;7.660;2022-11-09T04:23:14;7.40;70.10
42841;DHT22;28491;46.898;7.660;2022-11-09T04:25:41;7.40;70.40
42841;DHT22;28491;46.898;7.660;2022-11-09T04:28:08;7.30;70.10
42841;DHT22;28491;46.898;7.660;2022-11-09T04:30:36;7.30;72.90
42841;DHT22;28491;46.898;7.660;2022-11-09T04:33:02;7.20;75.00
42841;DHT22;28491;46.898;7.660;2022-11-09T04:35:29;7.20;82.30
42841;DHT22;28491;46.898;7.660;2022-11-09T04:38:03;7.20;85.20
42841;DHT22;28491;46.898;7.660;2022-11-09T04:40:30;7.20;85.60
42841;DHT22;28491;46.898;7.660;2022-11-09T04:42:58;7.20;90.60
42841;DHT22;28491;46.898;7.660;2022-11-09T04:45:24;7.30;90.90
42841;DHT22;28491;46.898;7.660;2022-11-09T04:47:50;7.30;91.10
42841;DHT22;28491;46.898;7.660;2022-11-09T04:50:15;7.20;91.00
42841;DHT22;28491;46.898;7.660;2022-11-09T04:52:41;7.30;91.80
42841;DHT22;28491;46.898;7.660;2022-11-09T04:55:07;7.20;90.40
42841;DHT22;28491;46.898;7.660;2022-11-09T04:57:33;7.10;90.00
42841;DHT22;28491;46.898;7.660;2022-11-09T04:59:58;7.10;91.60
42841;DHT22;28491;46.898;7.660;2022-11-09T05:02:24;7.10;92.30
42841;DHT22;28491;46.898;7.660;2022-11-09T05:04:49;7.00;93.70
42841;DHT22;28491;46.898;7.660;2022-11-09T05:07:15;7.10;95.40
42841;DHT22;28491;46.898;7.660;2022-11-09T05:09:40;7.10;96.30
42841;DHT22;28491;46.898;7.660;2022-11-09T05:12:06;7.10;97.30
42841;DHT22;28491;46.898;7.660;2022-11-09T05:14:31;7.00;97.20
42841;DHT22;28491;46.898;7.660;2022-11-09T05:16:57;7.10;98.00
42841;DHT22;28491;46.898;7.660;2022-11-09T05:19:22;7.10;98.40
42841;DHT22;28491;46.898;7.660;2022-11-09T05:21:48;7.10;98.70
42841;DHT22;28491;46.898;7.660;2022-11-09T05:24:14;7.10;98.70
42841;DHT22;28491;46.898;7.660;2022-11-09T05:26:40;7.20;98.90
42841;DHT22;28491;46.898;7.660;2022-11-09T05:29:10;7.10;98.90
42841;DHT22;28491;46.898;7.660;2022-11-09T05:31:37;7.10;98.90
42841;DHT22;28491;46.898;7.660;2022-11-09T05:34:03;7.10;99.00
42841;DHT22;28491;46.898;7.660;2022-11-09T05:36:30;7.20;99.40
42841;DHT22;28491;46.898;7.660;2022-11-09T05:38:56;7.20;99.60
42841;DHT22;28491;46.898;7.660;2022-11-09T05:41:22;7.20;99.80
42841;DHT22;28491;46.898;7.660;2022-11-09T05:43:48;7.20;99.90
42841;DHT22;28491;46.898;7.660;2022-11-09T05:46:14;7.20;99.90
42841;DHT22;28491;46.898;7.660;2022-11-09T05:48:41;7.20;99.90
42841;DHT22;28491;46.898;7.660;2022-11-09T05:51:08;7.10;99.90
42841;DHT22;28491;46.898;7.660;2022-11-09T05:53:34;7.20;99.90
42841;DHT22;28491;46.898;7.660;2022-11-09T05:56:05;7.20;99.90
42841;DHT22;28491;46.898;7.660;2022-11-09T05:58:31;7.20;99.90
42841;DHT22;28491;46.898;7.660;2022-11-09T06:01:02;7.30;99.90
42841;DHT22;28491;46.898;7.660;2022-11-09T06:03:27;7.30;99.90
42841;DHT22;28491;46.898;7.660;2022-11-09T06:05:53;7.30;99.90
42841;DHT22;28491;46.898;7.660;2022-11-09T06:08:18;7.40;99.90
42841;DHT22;28491;46.898;7.660;2022-11-09T06:10:44;7.40;99.90
42841;DHT22;28491;46.898;7.660;2022-11-09T06:13:10;7.40;99.90
42841;DHT22;28491;46.898;7.660;2022-11-09T06:15:36;7.40;99.90
42841;DHT22;28491;46.898;7.660;2022-11-09T06:18:01;7.50;99.90
42841;DHT22;28491;46.898;7.660;2022-11-09T06:20:27;7.50;99.90
42841;DHT22;28491;46.898;7.660;2022-11-09T06:22:53;7.60;99.90
42841;DHT22;28491;46.898;7.660;2022-11-09T06:25:19;7.60;99.90
42841;DHT22;28491;46.898;7.660;2022-11-09T06:27:44;7.60;99.90
42841;DHT22;28491;46.898;7.660;2022-11-09T06:30:10;7.60;99.90
42841;DHT22;28491;46.898;7.660;2022-11-09T06:32:36;7.60;99.90
42841;DHT22;28491;46.898;7.660;2022-11-09T06:35:01;7.50;99.90
42841;DHT22;28491;46.898;7.660;2022-11-09T06:37:27;7.60;99.90
42841;DHT22;28491;46.898;7.660;2022-11-09T06:39:52;7.60;99.90
42841;DHT22;28491;46.898;7.660;2022-11-09T06:42:18;7.60;99.90
42841;DHT22;28491;46.898;7.660;2022-11-09T06:44:43;7.60;99.90
42841;DHT22;28491;46.898;7.660;2022-11-09T06:47:09;7.70;99.90
42841;DHT22;28491;46.898;7.660;2022-11-09T06:49:34;7.80;99.90
42841;DHT22;28491;46.898;7.660;2022-11-09T06:52:00;7.90;99.90
42841;DHT22;28491;46.898;7.660;2022-11-09T06:54:25;7.90;99.90
42841;DHT22;28491;46.898;7.660;2022-11-09T06:56:53;7.90;99.90
42841;DHT22;28491;46.898;7.660;2022-11-09T06:59:19;7.90;99.90
42841;DHT22;28491;46.898;7.660;2022-11-09T07:01:45;7.90;99.90
42841;DHT22;28491;46.898;7.660;2022-11-09T07:04:13;7.90;99.90
42841;DHT22;28491;46.898;7.660;2022-11-09T07:06:39;7.90;99.90
42841;DHT22;28491;46.898;7.660;2022-11-09T07:09:05;8.00;99.90
42841;DHT22;28491;46.898;7.660;2022-11-09T07:11:31;8.00;99.90
42841;DHT22;28491;46.898;7.660;2022-11-09T07:13:57;8.00;99.90
42841;DHT22;28491;46.898;7.660;2022-11-09T07:16:22;8.00;99.90
42841;DHT22;28491;46.898;7.660;2022-11-09T07:18:48;8.10;99.90
42841;DHT22;28491;46.898;7.660;2022-11-09T07:21:13;8.10;99.90
42841;DHT22;28491;46.898;7.660;2022-11-09T07:23:39;8.10;99.90
42841;DHT22;28491;46.898;7.660;2022-11-09T07:26:05;8.20;99.90
42841;DHT22;28491;46.898;7.660;2022-11-09T07:28:31;8.20;99.90
42841;DHT22;28491;46.898;7.660;2022-11-09T07:30:57;8.30;99.90
42841;DHT22;28491;46.898;7.660;2022-11-09T07:33:23;8.30;99.90
42841;DHT22;28491;46.898;7.660;2022-11-09T07:35:49;8.40;99.90
42841;DHT22;28491;46.898;7.660;2022-11-09T07:38:15;8.50;99.90
42841;DHT22;28491;46.898;7.660;2022-11-09T07:40:42;8.50;99.90
42841;DHT22;28491;46.898;7.660;2022-11-09T07:43:10;8.50;99.90
42841;DHT22;28491;46.898;7.660;2022-11-09T07:45:36;8.50;99.90
42841;DHT22;28491;46.898;7.660;2022-11-09T07:48:04;8.70;99.90
42841;DHT22;28491;46.898;7.660;2022-11-09T07:50:31;8.70;99.90
42841;DHT22;28491;46.898;7.660;2022-11-09T07:52:59;8.60;99.90
42841;DHT22;28491;46.898;7.660;2022-11-09T07:55:25;8.60;99.90
42841;DHT22;28491;46.898;7.660;2022-11-09T07:57:59;8.60;99.90
42841;DHT22;28491;46.898;7.660;2022-11-09T08:00:26;8.70;99.90
42841;DHT22;28491;46.898;7.660;2022-11-09T08:02:52;8.70;99.90
42841;DHT22;28491;46.898;7.660;2022-11-09T08:05:18;8.70;99.90
42841;DHT22;28491;46.898;7.660;2022-11-09T08:07:44;8.70;99.90
42841;DHT22;28491;46.898;7.660;2022-11-09T08:10:09;8.70;99.90
42841;DHT22;28491;46.898;7.660;2022-11-09T08:12:35;8.80;99.90
42841;DHT22;28491;46.898;7.660;2022-11-09T08:15:00;8.70;99.90
42841;DHT22;28491;46.898;7.660;2022-11-09T08:17:26;8.80;99.90
42841;DHT22;28491;46.898;7.660;2022-11-09T08:19:51;8.80;99.90
42841;DHT22;28491;46.898;7.660;2022-11-09T08:22:17;8.80;99.90
42841;DHT22;28491;46.898;7.660;2022-11-09T08:24:42;8.80;99.90
42841;DHT22;28491;46.898;7.660;2022-11-09T08:27:08;8.80;99.90
42841;DHT22;28491;46.898;7.660;2022-11-09T08:29:34;8.80;99.90
42841;DHT22;28491;46.898;7.660;2022-11-09T08:31:59;8.80;99.90
42841;DHT22;28491;46.898;7.660;2022-11-09T08:34:25;8.80;99.90
42841;DHT22;28491;46.898;7.660;2022-11-09T08:36:50;8.80;99.90
42841;DHT22;28491;46.898;7.660;2022-11-09T08:39:16;8.90;99.90
42841;DHT22;28491;46.898;7.660;2022-11-09T08:41:41;8.90;99.90
42841;DHT22;28491;46.898;7.660;2022-11-09T08:44:07;8.90;99.90
42841;DHT22;28491;46.898;7.660;2022-11-09T08:46:32;8.90;99.90
42841;DHT22;28491;46.898;7.660;2022-11-09T08:48:58;8.90;99.90
42841;DHT22;28491;46.898;7.660;2022-11-09T08:51:23;8.90;99.90
42841;DHT22;28491;46.898;7.660;2022-11-09T08:53:49;9.00;99.90
42841;DHT22;28491;46.898;7.660;2022-11-09T08:56:16;9.00;99.90
42841;DHT22;28491;46.898;7.660;2022-11-09T08:58:44;9.00;99.90
42841;DHT22;28491;46.898;7.660;2022-11-09T09:01:10;9.00;99.90
42841;DHT22;28491;46.898;7.660;2022-11-09T09:03:36;9.10;99.90
42841;DHT22;28491;46.898;7.660;2022-11-09T09:06:03;9.20;99.90
42841;DHT22;28491;46.898;7.660;2022-11-09T09:08:29;9.20;99.90
42841;DHT22;28491;46.898;7.660;2022-11-09T09:10:55;9.20;99.90
42841;DHT22;28491;46.898;7.660;2022-11-09T09:13:20;9.20;99.90
42841;DHT22;28491;46.898;7.660;2022-11-09T09:15:47;9.10;99.90
42841;DHT22;28491;46.898;7.660;2022-11-09T09:18:13;9.20;99.90
42841;DHT22;28491;46.898;7.660;2022-11-09T09:20:39;9.20;99.90
42841;DHT22;28491;46.898;7.660;2022-11-09T09:23:05;9.20;99.90
42841;DHT22;28491;46.898;7.660;2022-11-09T09:25:31;9.20;99.90
42841;DHT22;28491;46.898;7.660;2022-11-09T09:27:56;9.30;99.90
42841;DHT22;28491;46.898;7.660;2022-11-09T09:30:22;9.30;99.90
42841;DHT22;28491;46.898;7.660;2022-11-09T09:32:47;9.30;99.90
42841;DHT22;28491;46.898;7.660;2022-11-09T09:35:13;9.30;99.90
42841;DHT22;28491;46.898;7.660;2022-11-09T09:37:39;9.40;99.90
42841;DHT22;28491;46.898;7.660;2022-11-09T09:40:05;9.40;99.90
42841;DHT22;28491;46.898;7.660;2022-11-09T09:42:34;9.40;99.90
42841;DHT22;28491;46.898;7.660;2022-11-09T09:45:07;9.40;99.90
42841;DHT22;28491;46.898;7.660;2022-11-09T09:50:23;9.40;99.90
42841;DHT22;28491;46.898;7.660;2022-11-09T09:53:05;9.50;99.90
42841;DHT22;28491;46.898;7.660;2022-11-09T09:55:38;9.50;99.90
42841;DHT22;28491;46.898;7.660;2022-11-09T09:58:13;9.50;99.90
42841;DHT22;28491;46.898;7.660;2022-11-09T10:00:42;9.50;99.90
42841;DHT22;28491;46.898;7.660;2022-11-09T10:03:16;9.50;99.90
42841;DHT22;28491;46.898;7.660;2022-11-09T10:08:43;9.50;99.90
42841;DHT22;28491;46.898;7.660;2022-11-09T10:11:21;9.50;99.90
42841;DHT22;28491;46.898;7.660;2022-11-09T10:14:02;9.60;99.90
42841;DHT22;28491;46.898;7.660;2022-11-09T10:16:50;9.60;99.90
42841;DHT22;28491;46.898;7.660;2022-11-09T10:19:29;9.70;99.90
42841;DHT22;28491;46.898;7.660;2022-11-09T10:22:21;9.70;99.90
42841;DHT22;28491;46.898;7.660;2022-11-09T10:27:29;9.80;99.90
42841;DHT22;28491;46.898;7.660;2022-11-09T10:29:58;9.80;99.90
42841;DHT22;28491;46.898;7.660;2022-11-09T10:32:28;9.90;99.90
42841;DHT22;28491;46.898;7.660;2022-11-09T10:37:43;10.00;99.90
42841;DHT22;28491;46.898;7.660;2022-11-09T10:43:00;10.00;99.90
42841;DHT22;28491;46.898;7.660;2022-11-09T10:45:37;10.10;99.90
42841;DHT22;28491;46.898;7.660;2022-11-09T10:48:05;10.20;99.90
42841;DHT22;28491;46.898;7.660;2022-11-09T10:50:46;10.20;99.90
42841;DHT22;28491;46.898;7.660;2022-11-09T10:58:31;10.20;99.90
42841;DHT22;28491;46.898;7.660;2022-11-09T11:01:00;10.10;99.90
42841;DHT22;28491;46.898;7.660;2022-11-09T11:03:27;10.10;99.90
42841;DHT22;28491;46.898;7.660;2022-11-09T11:06:01;10.20;99.90
42841;DHT22;28491;46.898;7.660;2022-11-09T11:11:13;10.10;99.90
42841;DHT22;28491;46.898;7.660;2022-11-09T11:13:39;10.10;99.90
42841;DHT22;28491;46.898;7.660;2022-11-09T11:16:32;10.10;99.90
42841;DHT22;28491;46.898;7.660;2022-11-09T11:18:58;10.30;99.90
42841;DHT22;28491;46.898;7.660;2022-11-09T11:21:26;10.30;99.90
42841;DHT22;28491;46.898;7.660;2022-11-09T11:24:18;10.30;99.90
42841;DHT22;28491;46.898;7.660;2022-11-09T11:26:55;10.40;99.90
42841;DHT22;28491;46.898;7.660;2022-11-09T11:29:44;10.40;99.90
42841;DHT22;28491;46.898;7.660;2022-11-09T11:32:19;10.40;99.90
42841;DHT22;28491;46.898;7.660;2022-11-09T11:34:45;10.40;99.90
42841;DHT22;28491;46.898;7.660;2022-11-09T11:40:04;10.30;99.90
42841;DHT22;28491;46.898;7.660;2022-11-09T11:46:11;10.20;99.90
42841;DHT22;28491;46.898;7.660;2022-11-09T11:49:03;10.20;99.90
42841;DHT22;28491;46.898;7.660;2022-11-09T11:57:45;10.20;99.90
42841;DHT22;28491;46.898;7.660;2022-11-09T12:00:14;10.20;99.90
42841;DHT22;28491;46.898;7.660;2022-11-09T12:06:01;10.20;99.90
42841;DHT22;28491;46.898;7.660;2022-11-09T12:11:29;10.10;99.90
42841;DHT22;28491;46.898;7.660;2022-11-09T12:17:09;10.10;99.90
42841;DHT22;28491;46.898;7.660;2022-11-09T12:19:58;10.20;99.90
42841;DHT22;28491;46.898;7.660;2022-11-09T12:34:42;10.30;99.90
42841;DHT22;28491;46.898;7.660;2022-11-09T12:37:13;10.30;99.90
42841;DHT22;28491;46.898;7.660;2022-11-09T12:42:12;10.30;99.90
42841;DHT22;28491;46.898;7.660;2022-11-09T12:44:50;10.20;99.90
42841;DHT22;28491;46.898;7.660;2022-11-09T12:47:23;10.20;99.90
42841;DHT22;28491;46.898;7.660;2022-11-09T12:49:52;10.10;99.90
42841;DHT22;28491;46.898;7.660;2022-11-09T12:52:22;10.10;99.90
42841;DHT22;28491;46.898;7.660;2022-11-09T12:54:52;10.10;99.90
42841;DHT22;28491;46.898;7.660;2022-11-09T12:57:24;10.10;99.90
42841;DHT22;28491;46.898;7.660;2022-11-09T12:59:52;10.10;99.90
42841;DHT22;28491;46.898;7.660;2022-11-09T13:02:29;10.10;99.90
42841;DHT22;28491;46.898;7.660;2022-11-09T13:04:58;10.10;99.90
42841;DHT22;28491;46.898;7.660;2022-11-09T13:07:37;10.10;99.90
42841;DHT22;28491;46.898;7.660;2022-11-09T13:10:04;10.10;99.90
42841;DHT22;28491;46.898;7.660;2022-11-09T13:12:36;10.10;99.90
42841;DHT22;28491;46.898;7.660;2022-11-09T13:15:22;10.10;99.90
42841;DHT22;28491;46.898;7.660;2022-11-09T13:23:01;10.10;99.90
42841;DHT22;28491;46.898;7.660;2022-11-09T13:25:45;10.10;99.90
42841;DHT22;28491;46.898;7.660;2022-11-09T13:28:42;10.10;99.90
42841;DHT22;28491;46.898;7.660;2022-11-09T13:31:09;10.00;99.90
42841;DHT22;28491;46.898;7.660;2022-11-09T13:33:35;10.00;99.90
42841;DHT22;28491;46.898;7.660;2022-11-09T13:38:34;10.00;99.90
42841;DHT22;28491;46.898;7.660;2022-11-09T13:41:38;10.00;99.90
42841;DHT22;28491;46.898;7.660;2022-11-09T13:43:46;9.90;99.90
42841;DHT22;28491;46.898;7.660;2022-11-09T13:46:27;9.90;99.90
42841;DHT22;28491;46.898;7.660;2022-11-09T13:48:54;9.90;99.90
42841;DHT22;28491;46.898;7.660;2022-11-09T13:51:20;9.90;99.90
42841;DHT22;28491;46.898;7.660;2022-11-09T13:53:56;9.80;99.90
42841;DHT22;28491;46.898;7.660;2022-11-09T13:58:51;9.80;99.90
42841;DHT22;28491;46.898;7.660;2022-11-09T14:03:50;9.90;99.90
42841;DHT22;28491;46.898;7.660;2022-11-09T14:06:16;9.90;99.90
42841;DHT22;28491;46.898;7.660;2022-11-09T14:08:42;9.90;99.90
42841;DHT22;28491;46.898;7.660;2022-11-09T14:13:55;9.80;99.90
42841;DHT22;28491;46.898;7.660;2022-11-09T14:16:51;9.90;99.90
42841;DHT22;28491;46.898;7.660;2022-11-09T14:19:39;9.90;99.90
42841;DHT22;28491;46.898;7.660;2022-11-09T14:22:14;9.90;99.90
42841;DHT22;28491;46.898;7.660;2022-11-09T14:24:41;9.90;99.90
42841;DHT22;28491;46.898;7.660;2022-11-09T14:27:11;9.90;99.90
42841;DHT22;28491;46.898;7.660;2022-11-09T14:29:49;9.80;99.90
42841;DHT22;28491;46.898;7.660;2022-11-09T14:32:35;9.80;99.90
42841;DHT22;28491;46.898;7.660;2022-11-09T14:35:17;9.70;99.90
42841;DHT22;28491;46.898;7.660;2022-11-09T14:37:43;9.70;99.90
42841;DHT22;28491;46.898;7.660;2022-11-09T14:40:24;9.80;99.90
42841;DHT22;28491;46.898;7.660;2022-11-09T14:42:59;9.80;99.90
42841;DHT22;28491;46.898;7.660;2022-11-09T14:45:26;9.80;99.90
42841;DHT22;28491;46.898;7.660;2022-11-09T14:47:56;9.80;99.90
42841;DHT22;28491;46.898;7.660;2022-11-09T14:50:25;9.80;99.90
42841;DHT22;28491;46.898;7.660;2022-11-09T14:52:52;9.80;99.90
42841;DHT22;28491;46.898;7.660;2022-11-09T14:55:20;9.80;99.90
42841;DHT22;28491;46.898;7.660;2022-11-09T14:57:47;9.80;99.90
42841;DHT22;28491;46.898;7.660;2022-11-09T15:00:34;9.80;99.90
42841;DHT22;28491;46.898;7.660;2022-11-09T15:03:20;9.80;99.90
42841;DHT22;28491;46.898;7.660;2022-11-09T15:05:46;9.70;99.90
42841;DHT22;28491;46.898;7.660;2022-11-09T15:08:19;9.70;99.90
42841;DHT22;28491;46.898;7.660;2022-11-09T15:10:52;9.70;99.90
42841;DHT22;28491;46.898;7.660;2022-11-09T15:13:26;9.70;99.90
42841;DHT22;28491;46.898;7.660;2022-11-09T15:15:53;9.70;99.90
42841;DHT22;28491;46.898;7.660;2022-11-09T15:18:27;9.60;99.90
42841;DHT22;28491;46.898;7.660;2022-11-09T15:21:34;9.70;99.90
42841;DHT22;28491;46.898;7.660;2022-11-09T15:26:40;9.60;99.90
42841;DHT22;28491;46.898;7.660;2022-11-09T15:34:40;9.50;99.90
42841;DHT22;28491;46.898;7.660;2022-11-09T15:39:51;9.50;99.90
42841;DHT22;28491;46.898;7.660;2022-11-09T15:42:17;9.40;99.90
42841;DHT22;28491;46.898;7.660;2022-11-09T15:44:43;9.40;99.90
42841;DHT22;28491;46.898;7.660;2022-11-09T15:47:35;9.40;99.90
42841;DHT22;28491;46.898;7.660;2022-11-09T15:50:14;9.40;99.90
42841;DHT22;28491;46.898;7.660;2022-11-09T15:52:40;9.40;99.90
42841;DHT22;28491;46.898;7.660;2022-11-09T15:55:12;9.40;99.90
42841;DHT22;28491;46.898;7.660;2022-11-09T15:57:37;9.40;99.90
42841;DHT22;28491;46.898;7.660;2022-11-09T16:00:03;9.40;99.90
42841;DHT22;28491;46.898;7.660;2022-11-09T16:02:29;9.40;99.90
42841;DHT22;28491;46.898;7.660;2022-11-09T16:04:55;9.30;99.90
42841;DHT22;28491;46.898;7.660;2022-11-09T16:07:20;9.40;99.90
42841;DHT22;28491;46.898;7.660;2022-11-09T16:09:46;9.30;99.90
42841;DHT22;28491;46.898;7.660;2022-11-09T16:12:11;9.40;99.90
42841;DHT22;28491;46.898;7.660;2022-11-09T16:14:37;9.30;99.90
42841;DHT22;28491;46.898;7.660;2022-11-09T16:17:03;9.30;99.90
42841;DHT22;28491;46.898;7.660;2022-11-09T16:19:28;9.30;99.90
42841;DHT22;28491;46.898;7.660;2022-11-09T16:21:54;9.30;99.90
42841;DHT22;28491;46.898;7.660;2022-11-09T16:24:20;9.40;99.90
42841;DHT22;28491;46.898;7.660;2022-11-09T16:26:46;9.30;99.90
42841;DHT22;28491;46.898;7.660;2022-11-09T16:29:12;9.40;99.90
42841;DHT22;28491;46.898;7.660;2022-11-09T16:31:37;9.40;99.90
42841;DHT22;28491;46.898;7.660;2022-11-09T16:34:03;9.40;99.90
42841;DHT22;28491;46.898;7.660;2022-11-09T16:36:29;9.40;99.90
42841;DHT22;28491;46.898;7.660;2022-11-09T16:38:55;9.40;99.90
42841;DHT22;28491;46.898;7.660;2022-11-09T16:41:23;9.40;99.90
42841;DHT22;28491;46.898;7.660;2022-11-09T16:43:51;9.40;99.90
42841;DHT22;28491;46.898;7.660;2022-11-09T16:46:25;9.40;99.90
42841;DHT22;28491;46.898;7.660;2022-11-09T16:48:53;9.40;99.90
42841;DHT22;28491;46.898;7.660;2022-11-09T16:51:19;9.40;99.90
42841;DHT22;28491;46.898;7.660;2022-11-09T16:53:45;9.40;99.90
42841;DHT22;28491;46.898;7.660;2022-11-09T16:56:10;9.40;99.90
42841;DHT22;28491;46.898;7.660;2022-11-09T16:58:36;9.40;99.90
42841;DHT22;28491;46.898;7.660;2022-11-09T17:01:01;9.40;99.90
42841;DHT22;28491;46.898;7.660;2022-11-09T17:03:27;9.40;99.90
42841;DHT22;28491;46.898;7.660;2022-11-09T17:05:59;9.40;99.90
42841;DHT22;28491;46.898;7.660;2022-11-09T17:08:25;9.40;99.90
42841;DHT22;28491;46.898;7.660;2022-11-09T17:10:50;9.40;99.90
42841;DHT22;28491;46.898;7.660;2022-11-09T17:13:16;9.40;99.90
42841;DHT22;28491;46.898;7.660;2022-11-09T17:15:44;9.40;99.90
42841;DHT22;28491;46.898;7.660;2022-11-09T17:18:10;9.40;99.90
42841;DHT22;28491;46.898;7.660;2022-11-09T17:20:41;9.40;99.90